createdAt,value
2024-02-16T00:01:06.005Z,100653.21
2024-02-16T00:03:34.344Z,100651.81
2024-02-16T00:06:02.163Z,100651.37
2024-02-16T00:08:29.860Z,100659.23
2024-02-16T00:10:57.587Z,100658.84
2024-02-16T00:13:25.301Z,100660.31
2024-02-16T00:15:52.970Z,100658.51
2024-02-16T00:18:20.717Z,100655.20
2024-02-16T00:20:48.598Z,100656.48
2024-02-16T00:23:16.584Z,100653.28
2024-02-16T00:25:45.051Z,100651.23
2024-02-16T00:28:12.783Z,100658.19
2024-02-16T00:30:40.507Z,100653.98
2024-02-16T00:33:08.915Z,100658.64
2024-02-16T00:35:36.627Z,100654.33
2024-02-16T00:38:04.495Z,100652.52
2024-02-16T00:40:33.802Z,100654.51
2024-02-16T00:43:03.101Z,100656.40
2024-02-16T00:45:30.907Z,100654.02
2024-02-16T00:47:59.033Z,100653.48
2024-02-16T00:50:27.623Z,100654.70
2024-02-16T00:52:55.193Z,100656.25
2024-02-16T00:55:22.848Z,100654.55
2024-02-16T00:57:50.515Z,100654.42
2024-02-16T01:00:20.934Z,100655.02
2024-02-16T01:02:48.766Z,100657.59
2024-02-16T01:05:19.241Z,100655.16
2024-02-16T01:07:47.067Z,100652.85
2024-02-16T01:10:14.881Z,100654.20
2024-02-16T01:12:42.455Z,100656.64
2024-02-16T01:15:11.097Z,100651.23
2024-02-16T01:17:40.840Z,100653.20
2024-02-16T01:20:12.572Z,100657.04
2024-02-16T01:22:41.038Z,100657.90
2024-02-16T01:25:09.899Z,100658.11
2024-02-16T01:27:37.812Z,100656.93
2024-02-16T01:30:06.351Z,100654.99
2024-02-16T01:32:34.212Z,100650.67
2024-02-16T01:35:02.004Z,100649.98
2024-02-16T01:37:29.933Z,100646.85
2024-02-16T01:39:57.590Z,100648.54
2024-02-16T01:42:25.314Z,100644.95
2024-02-16T01:44:52.953Z,100644.70
2024-02-16T01:47:20.604Z,100643.23
2024-02-16T01:49:48.291Z,100642.95
2024-02-16T01:52:15.919Z,100645.65
2024-02-16T01:54:43.464Z,100643.02
2024-02-16T01:57:12.478Z,100643.88
2024-02-16T01:59:41.587Z,100641.48
2024-02-16T02:02:09.134Z,100643.73
2024-02-16T02:04:37.964Z,100639.80
2024-02-16T02:07:15.866Z,100644.46
2024-02-16T02:09:43.677Z,100643.86
2024-02-16T02:12:11.408Z,100644.77
2024-02-16T02:14:39.219Z,100648.48
2024-02-16T02:17:07.188Z,100646.85
2024-02-16T02:19:35.084Z,100648.67
2024-02-16T02:22:02.926Z,100647.05
2024-02-16T02:24:30.576Z,100643.92
2024-02-16T02:26:58.964Z,100649.34
2024-02-16T02:29:26.543Z,100649.06
2024-02-16T02:31:54.195Z,100648.25
2024-02-16T02:34:22.192Z,100656.90
2024-02-16T02:36:50.233Z,100661.44
2024-02-16T02:39:17.982Z,100663.60
2024-02-16T02:41:45.769Z,100664.05
2024-02-16T02:44:13.334Z,100665.06
2024-02-16T02:46:40.888Z,100668.63
2024-02-16T02:49:09.740Z,100670.46
2024-02-16T02:51:37.808Z,100668.11
2024-02-16T02:54:05.837Z,100668.90
2024-02-16T02:56:33.429Z,100667.95
2024-02-16T02:59:01.059Z,100675.71
2024-02-16T03:01:29.274Z,100673.63
2024-02-16T03:03:57.354Z,100678.20
2024-02-16T03:06:25.280Z,100674.98
2024-02-16T03:08:53.057Z,100677.63
2024-02-16T03:11:20.948Z,100680.81
2024-02-16T03:13:49.218Z,100680.70
2024-02-16T03:16:16.919Z,100683.14
2024-02-16T03:18:44.862Z,100685.73
2024-02-16T03:21:18.997Z,100682.14
2024-02-16T03:23:46.945Z,100683.82
2024-02-16T03:26:15.966Z,100692.20
2024-02-16T03:28:48.783Z,100691.32
2024-02-16T03:31:20.360Z,100688.30
2024-02-16T03:33:48.802Z,100690.48
2024-02-16T03:36:16.772Z,100690.61
2024-02-16T03:38:48.333Z,100691.83
2024-02-16T03:41:16.941Z,100691.80
2024-02-16T03:43:44.530Z,100693.81
2024-02-16T03:46:12.164Z,100697.11
2024-02-16T03:48:40.692Z,100693.27
2024-02-16T03:51:08.471Z,100694.45
2024-02-16T03:53:36.092Z,100695.48
2024-02-16T03:56:03.955Z,100694.73
2024-02-16T03:58:32.602Z,100694.59
2024-02-16T04:01:00.212Z,100698.88
2024-02-16T04:03:28.020Z,100704.39
2024-02-16T04:05:55.769Z,100705.27
2024-02-16T04:08:23.604Z,100709.16
2024-02-16T04:10:51.296Z,100708.00
2024-02-16T04:13:18.938Z,100711.65
2024-02-16T04:15:46.721Z,100715.13
2024-02-16T04:18:14.634Z,100715.74
2024-02-16T04:20:42.634Z,100715.23
2024-02-16T04:23:10.191Z,100716.01
2024-02-16T04:25:37.841Z,100713.84
2024-02-16T04:28:06.243Z,100719.02
2024-02-16T04:30:33.821Z,100718.19
2024-02-16T04:33:02.162Z,100722.58
2024-02-16T04:35:29.841Z,100723.73
2024-02-16T04:37:57.503Z,100725.08
2024-02-16T04:40:25.065Z,100724.34
2024-02-16T04:42:52.622Z,100721.95
2024-02-16T04:45:21.394Z,100720.17
2024-02-16T04:47:49.677Z,100721.67
2024-02-16T04:50:17.361Z,100720.83
2024-02-16T04:52:45.510Z,100720.02
2024-02-16T04:55:13.134Z,100725.08
2024-02-16T04:57:40.794Z,100728.00
2024-02-16T05:00:10.956Z,100729.77
2024-02-16T05:02:38.373Z,100728.48
2024-02-16T05:05:07.306Z,100730.41
2024-02-16T05:07:37.439Z,100732.24
2024-02-16T05:10:09.223Z,100732.81
2024-02-16T05:12:36.867Z,100737.81
2024-02-16T05:15:07.171Z,100738.97
2024-02-16T05:17:34.878Z,100739.84
2024-02-16T05:20:02.585Z,100746.89
2024-02-16T05:22:30.908Z,100746.43
2024-02-16T05:24:58.478Z,100749.80
2024-02-16T05:27:26.148Z,100748.84
2024-02-16T05:29:53.854Z,100749.86
2024-02-16T05:32:21.564Z,100754.05
2024-02-16T05:37:16.682Z,100753.80
2024-02-16T05:40:08.934Z,100751.00
2024-02-16T05:42:37.196Z,100756.41
2024-02-16T05:45:07.007Z,100755.85
2024-02-16T05:47:36.366Z,100756.27
2024-02-16T05:50:04.685Z,100759.85
2024-02-16T05:52:32.472Z,100764.26
2024-02-16T05:55:00.038Z,100761.86
2024-02-16T05:57:27.628Z,100761.82
2024-02-16T05:59:57.044Z,100764.45
2024-02-16T06:02:27.224Z,100765.22
2024-02-16T06:04:55.128Z,100764.55
2024-02-16T06:07:22.694Z,100760.20
2024-02-16T06:09:50.518Z,100768.19
2024-02-16T06:12:18.202Z,100767.04
2024-02-16T06:14:45.849Z,100771.31
2024-02-16T06:17:15.973Z,100770.22
2024-02-16T06:19:43.880Z,100767.16
2024-02-16T06:22:11.701Z,100766.66
2024-02-16T06:24:39.294Z,100764.61
2024-02-16T06:27:07.082Z,100759.95
2024-02-16T06:29:35.003Z,100756.43
2024-02-16T06:32:03.498Z,100753.84
2024-02-16T06:34:32.068Z,100751.74
2024-02-16T06:36:59.942Z,100753.76
2024-02-16T06:39:27.792Z,100761.48
2024-02-16T06:41:55.635Z,100765.18
2024-02-16T06:44:24.988Z,100767.14
2024-02-16T06:46:52.953Z,100767.30
2024-02-16T06:49:20.613Z,100766.45
2024-02-16T06:51:48.767Z,100768.09
2024-02-16T06:54:16.840Z,100763.48
2024-02-16T06:56:45.450Z,100770.09
2024-02-16T06:59:13.022Z,100772.10
2024-02-16T07:01:42.091Z,100775.40
2024-02-16T07:04:10.724Z,100775.70
2024-02-16T07:06:39.776Z,100780.70
2024-02-16T07:09:07.506Z,100783.36
2024-02-16T07:11:36.640Z,100784.53
2024-02-16T07:14:05.349Z,100786.92
2024-02-16T07:16:33.740Z,100790.66
2024-02-16T07:19:01.811Z,100790.82
2024-02-16T07:21:29.499Z,100790.52
2024-02-16T07:23:57.149Z,100795.52
2024-02-16T07:26:24.884Z,100794.64
2024-02-16T07:28:52.458Z,100796.98
2024-02-16T07:31:20.117Z,100799.73
2024-02-16T07:33:49.479Z,100800.62
2024-02-16T07:36:33.479Z,100800.00
2024-02-16T07:39:01.300Z,100798.42
2024-02-16T07:41:29.403Z,100795.45
2024-02-16T07:43:57.083Z,100800.42
2024-02-16T07:46:25.059Z,100802.02
2024-02-16T07:48:53.048Z,100805.89
2024-02-16T07:51:20.835Z,100805.40
2024-02-16T07:53:48.746Z,100806.75
2024-02-16T07:56:16.410Z,100815.40
2024-02-16T07:58:46.958Z,100816.69
2024-02-16T08:01:17.298Z,100816.38
2024-02-16T08:03:45.125Z,100816.23
2024-02-16T08:06:13.707Z,100819.33
2024-02-16T08:08:41.616Z,100822.78
2024-02-16T08:11:09.286Z,100823.35
2024-02-16T08:13:37.021Z,100827.89
2024-02-16T08:16:08.431Z,100830.23
2024-02-16T08:18:36.577Z,100826.18
2024-02-16T08:21:04.640Z,100826.64
2024-02-16T08:23:32.696Z,100829.31
2024-02-16T08:26:00.256Z,100831.56
2024-02-16T08:31:20.995Z,100841.04
2024-02-16T08:33:49.137Z,100839.00
2024-02-16T08:36:22.971Z,100831.19
2024-02-16T08:38:50.823Z,100832.41
2024-02-16T08:41:18.825Z,100826.98
2024-02-16T08:43:46.464Z,100828.89
2024-02-16T08:46:14.037Z,100829.58
2024-02-16T08:48:41.811Z,100827.63
2024-02-16T08:51:09.776Z,100821.62
2024-02-16T08:53:37.837Z,100825.52
2024-02-16T08:56:10.124Z,100819.16
2024-02-16T08:58:37.771Z,100820.86
2024-02-16T09:01:06.161Z,100818.77
2024-02-16T09:03:38.371Z,100820.60
2024-02-16T09:06:06.283Z,100822.16
2024-02-16T09:08:36.924Z,100825.01
2024-02-16T09:11:06.627Z,100821.59
2024-02-16T09:13:41.636Z,100823.09
2024-02-16T09:16:09.670Z,100823.13
2024-02-16T09:18:39.339Z,100826.02
2024-02-16T09:21:07.981Z,100828.89
2024-02-16T09:23:50.248Z,100828.23
2024-02-16T09:26:18.159Z,100821.92
2024-02-16T09:28:45.879Z,100822.13
2024-02-16T09:31:16.828Z,100820.38
2024-02-16T09:33:44.737Z,100828.23
2024-02-16T09:36:12.496Z,100831.31
2024-02-16T09:38:40.284Z,100827.84
2024-02-16T09:41:08.201Z,100827.77
2024-02-16T09:43:36.286Z,100827.46
2024-02-16T09:46:04.665Z,100828.87
2024-02-16T09:48:33.119Z,100829.83
2024-02-16T09:51:01.080Z,100829.94
2024-02-16T09:53:29.892Z,100828.90
2024-02-16T09:55:58.124Z,100832.27
2024-02-16T09:58:25.964Z,100836.46
2024-02-16T10:00:58.639Z,100831.30
2024-02-16T10:03:30.029Z,100835.73
2024-02-16T10:06:08.886Z,100831.30
2024-02-16T10:08:47.844Z,100830.20
2024-02-16T10:11:16.148Z,100832.92
2024-02-16T10:13:43.872Z,100830.16
2024-02-16T10:16:26.873Z,100829.11
2024-02-16T10:19:00.933Z,100834.23
2024-02-16T10:21:29.504Z,100840.77
2024-02-16T10:24:09.814Z,100845.20
2024-02-16T10:26:41.726Z,100841.80
2024-02-16T10:29:10.741Z,100844.91
2024-02-16T10:31:38.985Z,100844.23
2024-02-16T10:34:08.032Z,100841.88
2024-02-16T10:36:40.122Z,100837.46
2024-02-16T10:39:09.936Z,100838.36
2024-02-16T10:41:39.439Z,100839.10
2024-02-16T10:44:07.607Z,100838.04
2024-02-16T10:46:35.695Z,100842.11
2024-02-16T10:49:08.002Z,100837.86
2024-02-16T10:51:45.439Z,100838.91
2024-02-16T10:54:15.688Z,100834.05
2024-02-16T10:56:43.481Z,100835.77
2024-02-16T10:59:11.517Z,100834.06
2024-02-16T11:01:39.977Z,100830.13
2024-02-16T11:04:27.255Z,100825.10
2024-02-16T11:07:04.322Z,100821.84
2024-02-16T11:09:40.821Z,100820.75
2024-02-16T11:12:13.776Z,100825.27
2024-02-16T11:14:42.803Z,100822.05
2024-02-16T11:17:14.474Z,100820.63
2024-02-16T11:19:46.556Z,100820.67
2024-02-16T11:22:19.383Z,100818.53
2024-02-16T11:24:48.876Z,100813.02
2024-02-16T11:27:21.010Z,100810.69
2024-02-16T11:29:50.111Z,100810.02
2024-02-16T11:32:19.672Z,100811.24
2024-02-16T11:34:47.443Z,100816.41
2024-02-16T11:37:18.616Z,100808.20
2024-02-16T11:39:48.414Z,100810.35
2024-02-16T11:42:20.370Z,100812.55
2024-02-16T11:44:56.816Z,100809.15
2024-02-16T11:47:30.435Z,100808.80
2024-02-16T11:50:04.300Z,100803.07
2024-02-16T11:52:33.264Z,100803.69
2024-02-16T11:55:02.873Z,100806.05
2024-02-16T11:57:31.303Z,100804.96
2024-02-16T11:59:59.077Z,100802.93
2024-02-16T12:02:26.946Z,100809.49
2024-02-16T12:05:03.550Z,100807.78
2024-02-16T12:07:33.236Z,100807.06
2024-02-16T12:10:02.499Z,100803.65
2024-02-16T12:12:30.307Z,100803.70
2024-02-16T12:14:58.411Z,100802.21
2024-02-16T12:17:26.117Z,100803.27
2024-02-16T12:19:54.049Z,100801.29
2024-02-16T12:22:22.045Z,100802.92
2024-02-16T12:24:51.677Z,100801.89
2024-02-16T12:27:19.629Z,100796.13
2024-02-16T12:29:47.405Z,100796.80
2024-02-16T12:32:20.386Z,100796.34
2024-02-16T12:34:48.646Z,100793.52
2024-02-16T12:37:16.630Z,100790.89
2024-02-16T12:39:44.560Z,100789.58
2024-02-16T12:42:14.453Z,100787.73
2024-02-16T12:44:42.486Z,100786.66
2024-02-16T12:47:10.162Z,100788.25
2024-02-16T12:49:37.983Z,100790.39
2024-02-16T12:52:05.847Z,100791.33
2024-02-16T12:54:34.585Z,100787.58
2024-02-16T12:57:02.365Z,100786.36
2024-02-16T12:59:30.117Z,100789.41
2024-02-16T13:01:57.893Z,100784.40
2024-02-16T13:04:25.799Z,100783.70
2024-02-16T13:06:54.472Z,100781.52
2024-02-16T13:09:22.471Z,100782.11
2024-02-16T13:11:55.999Z,100782.48
2024-02-16T13:14:23.979Z,100782.46
2024-02-16T13:16:51.641Z,100783.74
2024-02-16T13:19:19.908Z,100782.56
2024-02-16T13:21:48.198Z,100781.92
2024-02-16T13:24:16.847Z,100784.34
2024-02-16T13:26:45.169Z,100785.09
2024-02-16T13:29:12.836Z,100788.15
2024-02-16T13:31:42.039Z,100788.21
2024-02-16T13:34:10.024Z,100786.55
2024-02-16T13:36:37.926Z,100782.02
2024-02-16T13:39:06.995Z,100783.35
2024-02-16T13:41:34.799Z,100781.98
2024-02-16T13:44:02.698Z,100783.39
2024-02-16T13:46:30.471Z,100783.03
2024-02-16T13:48:58.852Z,100784.10
2024-02-16T13:51:26.737Z,100784.73
2024-02-16T13:53:54.822Z,100784.04
2024-02-16T13:56:22.540Z,100787.07
2024-02-16T13:58:50.183Z,100789.41
2024-02-16T14:01:17.907Z,100792.14
2024-02-16T14:03:45.834Z,100786.98
2024-02-16T14:06:13.882Z,100787.73
2024-02-16T14:08:42.060Z,100786.37
2024-02-16T14:11:10.357Z,100783.49
2024-02-16T14:13:38.101Z,100782.96
2024-02-16T14:16:06.671Z,100780.75
2024-02-16T14:18:35.710Z,100780.77
2024-02-16T14:21:04.528Z,100782.84
2024-02-16T14:23:32.909Z,100787.98
2024-02-16T14:26:00.828Z,100783.02
2024-02-16T14:28:28.701Z,100789.42
2024-02-16T14:30:56.556Z,100790.25
2024-02-16T14:33:32.603Z,100790.61
2024-02-16T14:36:03.779Z,100787.77
2024-02-16T14:38:32.037Z,100789.23
2024-02-16T14:41:05.064Z,100789.44
2024-02-16T14:43:35.963Z,100791.42
2024-02-16T14:46:06.401Z,100793.28
2024-02-16T14:48:34.319Z,100792.15
2024-02-16T14:51:02.288Z,100799.56
2024-02-16T14:53:34.664Z,100799.05
2024-02-16T14:56:04.697Z,100802.52
2024-02-16T14:58:32.932Z,100802.52
2024-02-16T15:01:00.597Z,100807.50
2024-02-16T15:03:31.988Z,100808.02
2024-02-16T15:05:59.966Z,100809.15
2024-02-16T15:08:28.592Z,100809.23
2024-02-16T15:10:56.384Z,100811.75
2024-02-16T15:13:26.162Z,100813.81
2024-02-16T15:15:54.114Z,100812.91
2024-02-16T15:18:22.126Z,100814.34
2024-02-16T15:20:51.917Z,100814.61
2024-02-16T15:23:21.232Z,100815.30
2024-02-16T15:25:48.916Z,100820.38
2024-02-16T15:28:16.666Z,100817.56
2024-02-16T15:30:44.746Z,100817.67
2024-02-16T15:33:12.638Z,100819.57
2024-02-16T15:35:40.486Z,100820.13
2024-02-16T15:38:08.142Z,100822.94
2024-02-16T15:40:35.810Z,100820.36
2024-02-16T15:43:04.758Z,100825.23
2024-02-16T15:45:33.282Z,100828.70
2024-02-16T15:48:01.791Z,100828.60
2024-02-16T15:50:31.748Z,100832.36
2024-02-16T15:53:00.824Z,100836.52
2024-02-16T15:55:28.555Z,100836.30
2024-02-16T15:57:56.078Z,100836.44
2024-02-16T16:00:23.825Z,100837.87
2024-02-16T16:02:51.750Z,100841.55
2024-02-16T16:05:19.402Z,100839.96
2024-02-16T16:07:47.431Z,100839.13
2024-02-16T16:10:18.034Z,100840.20
2024-02-16T16:12:45.809Z,100836.66
2024-02-16T16:15:13.507Z,100840.20
2024-02-16T16:17:41.234Z,100839.98
2024-02-16T16:20:10.159Z,100836.63
2024-02-16T16:22:37.873Z,100840.94
2024-02-16T16:25:06.514Z,100843.95
2024-02-16T16:27:34.236Z,100847.09
2024-02-16T16:30:02.043Z,100844.56
2024-02-16T16:32:29.654Z,100849.41
2024-02-16T16:34:57.941Z,100851.70
2024-02-16T16:37:25.789Z,100853.23
2024-02-16T16:39:53.553Z,100862.52
2024-02-16T16:42:21.241Z,100860.61
2024-02-16T16:44:51.586Z,100865.39
2024-02-16T16:47:19.521Z,100867.17
2024-02-16T16:49:47.370Z,100870.91
2024-02-16T16:52:15.157Z,100878.20
2024-02-16T16:54:43.665Z,100878.10
2024-02-16T16:57:11.437Z,100880.54
2024-02-16T16:59:39.078Z,100881.02
2024-02-16T17:02:07.408Z,100881.49
2024-02-16T17:04:35.300Z,100881.41
2024-02-16T17:07:03.359Z,100884.98
2024-02-16T17:09:31.210Z,100888.67
2024-02-16T17:12:04.047Z,100892.25
2024-02-16T17:14:33.515Z,100892.65
2024-02-16T17:17:04.168Z,100896.11
2024-02-16T17:19:32.851Z,100892.99
2024-02-16T17:22:00.762Z,100897.36
2024-02-16T17:24:31.986Z,100895.27
2024-02-16T17:26:59.999Z,100894.52
2024-02-16T17:29:27.754Z,100895.48
2024-02-16T17:31:55.274Z,100891.67
2024-02-16T17:34:23.821Z,100891.54
2024-02-16T17:36:51.935Z,100888.89
2024-02-16T17:39:23.584Z,100890.88
2024-02-16T17:41:51.274Z,100890.52
2024-02-16T17:44:18.933Z,100891.26
2024-02-16T17:46:46.692Z,100897.53
2024-02-16T17:49:15.002Z,100901.39
2024-02-16T17:51:42.839Z,100900.75
2024-02-16T17:54:11.160Z,100901.57
2024-02-16T17:56:38.801Z,100902.65
2024-02-16T17:59:06.454Z,100902.96
2024-02-16T18:01:34.267Z,100906.34
2024-02-16T18:04:02.069Z,100902.11
2024-02-16T18:06:30.803Z,100900.96
2024-02-16T18:08:58.770Z,100899.02
2024-02-16T18:11:26.574Z,100901.33
2024-02-16T18:13:54.379Z,100900.92
2024-02-16T18:16:25.115Z,100902.28
2024-02-16T18:18:52.897Z,100901.42
2024-02-16T18:21:20.695Z,100900.59
2024-02-16T18:23:49.218Z,100900.07
2024-02-16T18:26:17.007Z,100903.58
2024-02-16T18:28:46.154Z,100902.58
2024-02-16T18:31:14.163Z,100905.19
2024-02-16T18:33:42.022Z,100905.06
2024-02-16T18:36:09.955Z,100903.42
2024-02-16T18:38:38.619Z,100905.23
2024-02-16T18:41:06.207Z,100902.67
2024-02-16T18:43:33.747Z,100909.15
2024-02-16T18:46:01.332Z,100903.95
2024-02-16T18:48:29.044Z,100900.15
2024-02-16T18:50:56.852Z,100903.48
2024-02-16T18:53:25.415Z,100904.23
2024-02-16T18:55:54.401Z,100905.95
2024-02-16T18:58:22.031Z,100904.98
2024-02-16T19:00:50.333Z,100910.77
2024-02-16T19:03:18.096Z,100909.64
2024-02-16T19:05:46.291Z,100912.10
2024-02-16T19:08:14.145Z,100914.34
2024-02-16T19:10:41.822Z,100912.83
2024-02-16T19:13:09.465Z,100913.83
2024-02-16T19:15:37.286Z,100913.25
2024-02-16T19:18:05.933Z,100912.80
2024-02-16T19:20:34.417Z,100915.30
2024-02-16T19:23:02.168Z,100919.54
2024-02-16T19:25:29.874Z,100919.08
2024-02-16T19:27:58.872Z,100918.91
2024-02-16T19:30:26.775Z,100917.77
2024-02-16T19:32:54.576Z,100914.44
2024-02-16T19:35:23.598Z,100917.15
2024-02-16T19:37:51.565Z,100915.17
2024-02-16T19:40:19.972Z,100914.44
2024-02-16T19:42:48.494Z,100914.77
2024-02-16T19:45:25.755Z,100920.27
2024-02-16T19:47:59.812Z,100923.68
2024-02-16T19:50:27.642Z,100925.04
2024-02-16T19:52:55.328Z,100922.54
2024-02-16T19:55:23.100Z,100916.80
2024-02-16T19:57:51.533Z,100915.11
2024-02-16T20:00:21.837Z,100915.36
2024-02-16T20:02:49.566Z,100909.58
2024-02-16T20:05:19.607Z,100901.39
2024-02-16T20:07:47.794Z,100898.47
2024-02-16T20:10:16.547Z,100903.41
2024-02-16T20:12:44.279Z,100904.73
2024-02-16T20:15:12.193Z,100905.05
2024-02-16T20:17:40.123Z,100905.30
2024-02-16T20:20:09.772Z,100902.88
2024-02-16T20:22:37.356Z,100904.33
2024-02-16T20:25:07.567Z,100911.77
2024-02-16T20:27:35.144Z,100916.91
2024-02-16T20:30:03.387Z,100915.26
2024-02-16T20:32:32.739Z,100916.70
2024-02-16T20:35:04.476Z,100913.20
2024-02-16T20:37:34.051Z,100909.58
2024-02-16T20:40:02.257Z,100907.82
2024-02-16T20:42:29.939Z,100907.27
2024-02-16T20:44:57.739Z,100904.57
2024-02-16T20:47:26.169Z,100905.20
2024-02-16T20:49:53.935Z,100902.23
2024-02-16T20:52:22.190Z,100906.92
2024-02-16T20:54:49.876Z,100911.33
2024-02-16T20:57:17.695Z,100912.23
2024-02-16T20:59:45.440Z,100906.70
2024-02-16T21:02:14.847Z,100905.73
2024-02-16T21:04:43.982Z,100906.34
2024-02-16T21:07:12.146Z,100907.58
2024-02-16T21:09:40.314Z,100909.05
2024-02-16T21:12:09.644Z,100905.69
2024-02-16T21:14:37.632Z,100906.19
2024-02-16T21:17:05.404Z,100904.98
2024-02-16T21:19:34.188Z,100901.38
2024-02-16T21:22:02.364Z,100895.27
2024-02-16T21:24:30.274Z,100892.63
2024-02-16T21:26:57.898Z,100898.45
2024-02-16T21:29:25.552Z,100890.16
2024-02-16T21:31:53.132Z,100888.36
2024-02-16T21:34:21.044Z,100891.06
2024-02-16T21:36:54.792Z,100891.94
2024-02-16T21:39:22.438Z,100892.83
2024-02-16T21:41:50.115Z,100887.12
2024-02-16T21:44:17.676Z,100888.36
2024-02-16T21:46:49.633Z,100888.31
2024-02-16T21:49:17.705Z,100884.49
2024-02-16T21:51:45.394Z,100880.89
2024-02-16T21:54:13.182Z,100880.98
2024-02-16T21:56:40.911Z,100879.65
2024-02-16T21:59:08.572Z,100877.77
2024-02-16T22:01:36.154Z,100870.54
2024-02-16T22:04:04.538Z,100873.81
2024-02-16T22:06:32.642Z,100874.02
2024-02-16T22:09:00.442Z,100875.77
2024-02-16T22:11:28.349Z,100875.05
2024-02-16T22:13:56.194Z,100875.41
2024-02-16T22:16:23.726Z,100872.83
2024-02-16T22:18:52.388Z,100874.93
2024-02-16T22:21:24.181Z,100876.07
2024-02-16T22:23:59.704Z,100876.82
2024-02-16T22:26:27.436Z,100880.05
2024-02-16T22:28:55.076Z,100879.85
2024-02-16T22:31:27.448Z,100877.26
2024-02-16T22:34:00.837Z,100879.85
2024-02-16T22:36:30.316Z,100880.46
2024-02-16T22:38:58.005Z,100876.02
2024-02-16T22:41:25.691Z,100870.34
2024-02-16T22:43:53.872Z,100872.98
2024-02-16T22:46:21.432Z,100870.94
2024-02-16T22:48:50.781Z,100863.39
2024-02-16T22:51:18.614Z,100862.23
2024-02-16T22:53:46.262Z,100861.33
2024-02-16T22:56:13.820Z,100861.38
2024-02-16T22:58:41.391Z,100856.27
2024-02-16T23:01:11.262Z,100854.10
2024-02-16T23:03:39.102Z,100857.50
2024-02-16T23:06:08.115Z,100859.07
2024-02-16T23:08:36.540Z,100859.55
2024-02-16T23:11:04.964Z,100861.16
2024-02-16T23:13:32.710Z,100859.31
2024-02-16T23:16:00.268Z,100860.08
2024-02-16T23:18:28.940Z,100856.89
2024-02-16T23:20:56.819Z,100856.27
2024-02-16T23:23:24.371Z,100860.08
2024-02-16T23:25:51.926Z,100866.59
2024-02-16T23:28:19.594Z,100864.99
2024-02-16T23:30:47.375Z,100866.52
2024-02-16T23:33:15.251Z,100865.29
2024-02-16T23:35:43.156Z,100867.61
2024-02-16T23:38:12.720Z,100868.02
2024-02-16T23:40:41.632Z,100868.35
2024-02-16T23:43:13.141Z,100864.23
2024-02-16T23:45:40.831Z,100861.98
2024-02-16T23:48:08.687Z,100859.80
2024-02-16T23:50:36.344Z,100861.33
2024-02-16T23:53:04.022Z,100857.18
2024-02-16T23:55:31.570Z,100864.61
2024-02-16T23:57:59.338Z,100863.77
